Time;durP1;ratioP1;P1;durP2;ratioP2;P2;SDS_P1;SDS_P2;PMS_P1;PMS_P2;Temp;Humidity;BMP_temperature;BMP_pressure;BME280_temperature;BME280_humidity;BME280_pressure;Samples;Min_cycle;Max_cycle;Signal;HPM_P1;HPM_P2
2024/01/29 00:00:29;;;;;;;19.27;10.07;;;2.10;99.90;;;;;;5011604;28;20052;-43
2024/01/29 00:02:54;;;;;;;19.20;10.70;;;2.00;99.90;;;;;;5011161;28;20045;-42
2024/01/29 00:05:20;;;;;;;30.13;12.27;;;2.00;99.90;;;;;;5011595;28;20096;-47
2024/01/29 00:07:45;;;;;;;29.67;14.85;;;2.00;99.90;;;;;;5011682;28;20168;-43
2024/01/29 00:10:11;;;;;;;22.67;11.88;;;2.10;99.90;;;;;;5011687;28;20100;-44
2024/01/29 00:12:36;;;;;;;18.48;11.40;;;2.10;99.90;;;;;;5011299;28;20415;-44
2024/01/29 00:15:02;;;;;;;24.02;12.52;;;2.10;99.90;;;;;;5011554;28;20391;-42
2024/01/29 00:17:28;;;;;;;14.48;10.88;;;2.10;99.90;;;;;;5012064;28;20104;-43
2024/01/29 00:19:53;;;;;;;18.55;11.60;;;2.10;99.90;;;;;;5011756;28;20522;-43
2024/01/29 00:22:19;;;;;;;27.85;14.20;;;2.00;99.90;;;;;;5011235;28;20103;-44
2024/01/29 00:24:44;;;;;;;21.05;10.10;;;2.10;99.90;;;;;;5011339;28;20022;-47
2024/01/29 00:27:10;;;;;;;17.35;9.75;;;2.00;99.90;;;;;;5011193;28;20076;-42
2024/01/29 00:29:35;;;;;;;17.65;11.38;;;1.90;99.90;;;;;;5011429;28;20036;-43
2024/01/29 00:32:01;;;;;;;15.48;10.80;;;1.90;99.90;;;;;;5011336;28;20026;-43
2024/01/29 00:34:26;;;;;;;17.80;11.55;;;1.80;99.90;;;;;;5011268;28;20544;-42
2024/01/29 00:36:52;;;;;;;16.50;9.57;;;1.80;99.90;;;;;;5011335;28;20068;-42
2024/01/29 00:39:17;;;;;;;14.85;9.93;;;1.70;99.90;;;;;;5011665;28;20026;-45
2024/01/29 00:41:43;;;;;;;15.80;10.63;;;1.70;99.90;;;;;;5026896;28;20038;-41
2024/01/29 00:44:08;;;;;;;18.25;10.95;;;1.70;99.90;;;;;;5010786;28;20030;-43
2024/01/29 00:46:34;;;;;;;20.88;12.77;;;1.70;99.90;;;;;;5011352;28;20522;-44
2024/01/29 00:48:59;;;;;;;126.80;70.65;;;1.70;99.90;;;;;;5010600;28;20030;-41
2024/01/29 00:51:25;;;;;;;40.25;20.05;;;1.60;99.90;;;;;;5011832;28;20033;-42
2024/01/29 00:53:50;;;;;;;21.10;10.63;;;1.60;99.90;;;;;;5011738;28;20057;-42
2024/01/29 00:56:16;;;;;;;22.40;11.18;;;1.60;99.90;;;;;;5011418;28;20022;-44
2024/01/29 00:58:44;;;;;;;17.50;9.93;;;1.70;99.90;;;;;;5011276;28;20108;-41
2024/01/29 01:01:10;;;;;;;13.48;10.07;;;1.60;99.90;;;;;;5012167;28;20107;-39
2024/01/29 01:03:35;;;;;;;14.05;9.45;;;1.60;99.90;;;;;;5014484;28;20033;-42
2024/01/29 01:06:01;;;;;;;15.52;10.10;;;1.60;99.90;;;;;;5014856;28;20042;-44
2024/01/29 01:08:26;;;;;;;17.55;10.13;;;1.50;99.90;;;;;;5014814;28;20446;-47
2024/01/29 01:10:52;;;;;;;17.75;10.73;;;1.50;99.90;;;;;;5014797;28;20173;-46
2024/01/29 01:13:17;;;;;;;16.70;10.55;;;1.50;99.90;;;;;;5014097;28;20072;-43
2024/01/29 01:15:43;;;;;;;19.48;12.43;;;1.50;99.90;;;;;;5014648;28;20029;-46
2024/01/29 01:18:08;;;;;;;21.08;13.75;;;1.40;99.90;;;;;;5014683;28;20080;-42
2024/01/29 01:20:34;;;;;;;20.15;11.93;;;1.40;99.90;;;;;;5014506;28;20053;-44
2024/01/29 01:23:00;;;;;;;16.08;12.52;;;1.40;99.90;;;;;;5014366;28;20096;-42
2024/01/29 01:25:26;;;;;;;14.27;10.43;;;1.40;99.90;;;;;;5014538;28;20014;-42
2024/01/29 01:27:53;;;;;;;16.30;10.25;;;1.40;99.90;;;;;;5014464;28;20041;-43
2024/01/29 01:30:20;;;;;;;19.30;11.27;;;1.40;99.90;;;;;;5014062;28;20029;-42
2024/01/29 01:32:46;;;;;;;18.52;11.50;;;1.40;99.90;;;;;;5014140;28;20394;-42
2024/01/29 01:35:11;;;;;;;20.20;13.13;;;1.40;99.90;;;;;;5014208;28;20033;-46
2024/01/29 01:37:37;;;;;;;26.02;15.95;;;1.40;99.90;;;;;;5014304;28;20032;-44
2024/01/29 01:40:04;;;;;;;19.98;11.90;;;1.40;99.90;;;;;;5014146;28;20022;-42
2024/01/29 01:42:30;;;;;;;24.52;12.00;;;1.40;99.90;;;;;;5013735;28;20018;-47
2024/01/29 01:44:56;;;;;;;16.05;11.25;;;1.40;99.90;;;;;;5012746;28;20024;-45
2024/01/29 01:47:21;;;;;;;27.13;14.50;;;1.50;99.90;;;;;;5014374;28;20096;-42
2024/01/29 01:49:47;;;;;;;19.55;13.30;;;1.40;99.90;;;;;;5014072;28;20018;-43
2024/01/29 01:52:16;;;;;;;15.60;12.15;;;1.40;99.90;;;;;;5013773;28;20025;-43
2024/01/29 01:54:42;;;;;;;18.63;11.25;;;1.40;99.90;;;;;;5013568;28;20026;-40
2024/01/29 01:57:08;;;;;;;15.60;11.55;;;1.40;99.90;;;;;;5012546;28;20026;-42
2024/01/29 01:59:35;;;;;;;22.20;11.70;;;1.30;99.90;;;;;;5013922;28;20406;-42
2024/01/29 02:02:01;;;;;;;19.13;11.27;;;1.30;99.90;;;;;;5013630;28;20022;-42
2024/01/29 02:04:27;;;;;;;17.90;11.05;;;1.30;99.90;;;;;;5013276;28;20033;-46
2024/01/29 02:06:53;;;;;;;27.15;14.20;;;1.20;99.90;;;;;;5013961;28;20435;-46
2024/01/29 02:09:19;;;;;;;22.33;15.07;;;1.30;99.90;;;;;;5013563;28;20499;-42
2024/01/29 02:11:44;;;;;;;25.80;14.27;;;1.20;99.90;;;;;;5013294;28;20026;-42
2024/01/29 02:14:10;;;;;;;21.85;13.60;;;1.30;99.90;;;;;;5013239;28;20087;-40
2024/01/29 02:16:36;;;;;;;18.42;12.52;;;1.20;99.90;;;;;;5013475;28;20048;-44
2024/01/29 02:19:05;;;;;;;25.17;14.02;;;1.20;99.90;;;;;;5015050;28;20038;-42
2024/01/29 02:21:31;;;;;;;25.70;12.60;;;1.00;99.90;;;;;;5013980;28;20033;-44
2024/01/29 02:23:56;;;;;;;24.45;13.75;;;1.00;99.90;;;;;;5012937;28;20026;-43
2024/01/29 02:26:22;;;;;;;26.05;14.80;;;0.90;99.90;;;;;;5013279;28;20026;-43
2024/01/29 02:28:47;;;;;;;20.48;13.00;;;0.90;99.90;;;;;;5013382;28;20483;-40
2024/01/29 02:31:14;;;;;;;25.42;16.05;;;0.90;99.90;;;;;;5013370;28;20025;-42
2024/01/29 02:33:39;;;;;;;21.27;12.98;;;0.90;99.90;;;;;;5012988;28;20021;-44
2024/01/29 02:36:05;;;;;;;20.52;12.02;;;1.00;99.90;;;;;;5013106;28;20076;-43
2024/01/29 02:38:30;;;;;;;19.08;11.90;;;1.00;99.90;;;;;;5013033;28;20042;-43
2024/01/29 02:40:56;;;;;;;13.98;10.93;;;1.00;99.90;;;;;;5013092;28;20026;-46
2024/01/29 02:43:21;;;;;;;13.95;10.35;;;1.00;99.90;;;;;;5012556;28;20474;-44
2024/01/29 02:45:48;;;;;;;23.20;10.95;;;1.10;99.90;;;;;;5012998;28;20091;-42
2024/01/29 02:48:14;;;;;;;19.60;11.07;;;1.10;99.90;;;;;;5012907;28;20579;-46
2024/01/29 02:50:39;;;;;;;17.27;10.18;;;1.20;99.90;;;;;;5012764;28;20105;-42
2024/01/29 02:53:05;;;;;;;17.23;10.95;;;1.20;99.90;;;;;;5012694;28;20061;-43
2024/01/29 02:55:30;;;;;;;14.70;10.75;;;1.20;99.90;;;;;;5012825;28;20029;-42
2024/01/29 02:57:56;;;;;;;17.70;11.77;;;1.20;99.90;;;;;;5012790;28;20034;-43
2024/01/29 03:00:21;;;;;;;18.85;11.43;;;1.20;99.90;;;;;;5012733;28;20061;-43
2024/01/29 03:02:47;;;;;;;19.25;10.77;;;1.10;99.90;;;;;;5012305;28;20102;-44
2024/01/29 03:05:12;;;;;;;17.98;10.98;;;1.10;99.90;;;;;;5012470;28;20034;-42
2024/01/29 03:07:38;;;;;;;19.05;11.55;;;1.10;99.90;;;;;;5012618;28;20033;-43
2024/01/29 03:10:04;;;;;;;19.30;11.55;;;1.10;99.90;;;;;;5012566;28;20034;-43
2024/01/29 03:12:29;;;;;;;18.15;11.32;;;1.10;99.90;;;;;;5012164;28;20026;-47
2024/01/29 03:14:54;;;;;;;15.60;10.02;;;1.20;99.90;;;;;;5012583;28;20395;-44
2024/01/29 03:17:20;;;;;;;16.42;10.75;;;1.20;99.90;;;;;;5012455;28;20030;-44
2024/01/29 03:19:46;;;;;;;21.00;10.80;;;1.20;99.90;;;;;;5012407;28;20461;-47
2024/01/29 03:22:11;;;;;;;16.70;10.55;;;1.20;99.90;;;;;;5012099;28;20034;-47
2024/01/29 03:24:37;;;;;;;16.48;11.57;;;1.30;99.90;;;;;;5011523;28;20092;-44
2024/01/29 03:27:02;;;;;;;23.63;13.55;;;1.30;99.90;;;;;;5012253;28;20041;-43
2024/01/29 03:29:28;;;;;;;24.92;14.63;;;1.30;99.90;;;;;;5012267;28;20030;-43
2024/01/29 03:31:54;;;;;;;24.33;13.68;;;1.40;99.90;;;;;;5012194;28;20030;-41
2024/01/29 03:34:20;;;;;;;26.92;13.32;;;1.40;99.90;;;;;;5011819;28;20014;-43
2024/01/29 03:36:46;;;;;;;18.00;12.40;;;1.40;99.90;;;;;;5012098;28;20025;-46
2024/01/29 03:39:12;;;;;;;19.63;11.43;;;1.40;99.90;;;;;;5012037;28;20479;-43
2024/01/29 03:41:37;;;;;;;19.50;12.05;;;1.30;99.90;;;;;;5012192;28;20060;-46
2024/01/29 03:44:03;;;;;;;26.17;12.63;;;1.30;99.90;;;;;;5011618;28;20041;-43
2024/01/29 03:46:28;;;;;;;22.75;13.63;;;1.30;99.90;;;;;;5011917;28;20026;-43
2024/01/29 03:48:54;;;;;;;18.10;11.93;;;1.30;99.90;;;;;;5011850;28;20038;-44
2024/01/29 03:51:19;;;;;;;20.77;11.40;;;1.20;99.90;;;;;;5011904;28;20402;-43
2024/01/29 03:53:45;;;;;;;16.45;11.07;;;1.10;99.90;;;;;;5011433;28;20107;-43
2024/01/29 03:56:10;;;;;;;19.50;13.07;;;1.00;99.90;;;;;;5011820;28;20578;-39
2024/01/29 03:58:36;;;;;;;22.20;13.15;;;1.10;99.90;;;;;;5011862;28;20024;-43
2024/01/29 04:01:01;;;;;;;21.52;14.35;;;1.20;99.90;;;;;;5011861;28;20021;-43
2024/01/29 04:03:27;;;;;;;23.35;13.45;;;1.30;99.90;;;;;;5011186;28;20030;-43
2024/01/29 04:05:52;;;;;;;18.35;13.05;;;1.30;99.90;;;;;;5011695;28;20457;-43
2024/01/29 04:08:18;;;;;;;19.40;12.88;;;1.30;99.90;;;;;;5010319;28;20025;-43
2024/01/29 04:10:43;;;;;;;19.30;12.18;;;1.40;99.90;;;;;;5011828;28;20026;-40
2024/01/29 04:13:09;;;;;;;18.27;12.18;;;1.30;99.90;;;;;;5011291;28;20088;-44
2024/01/29 04:15:34;;;;;;;16.75;11.05;;;1.20;99.90;;;;;;5011619;28;20109;-43
2024/01/29 04:18:00;;;;;;;17.27;9.90;;;1.20;99.90;;;;;;5011498;28;20033;-43
2024/01/29 04:20:25;;;;;;;15.15;9.68;;;1.20;99.90;;;;;;5011493;28;20066;-43
2024/01/29 04:22:51;;;;;;;17.05;10.43;;;1.20;99.90;;;;;;5011109;28;20317;-43
2024/01/29 04:25:16;;;;;;;15.40;10.27;;;1.10;99.90;;;;;;5011504;28;20018;-42
2024/01/29 04:27:41;;;;;;;17.58;10.23;;;1.10;99.90;;;;;;5011474;28;20030;-45
2024/01/29 04:30:08;;;;;;;15.07;8.57;;;1.10;99.90;;;;;;5011473;28;20026;-43
2024/01/29 04:32:33;;;;;;;13.90;9.30;;;1.10;99.90;;;;;;5010993;28;20065;-44
2024/01/29 04:34:58;;;;;;;16.40;8.85;;;1.20;99.90;;;;;;5012095;28;20057;-43
2024/01/29 04:37:24;;;;;;;15.75;9.57;;;1.20;99.90;;;;;;5015486;28;20042;-44
2024/01/29 04:39:50;;;;;;;15.25;8.43;;;1.20;99.90;;;;;;5015710;28;20026;-45
2024/01/29 04:42:16;;;;;;;19.52;9.32;;;1.30;99.90;;;;;;5014979;28;20025;-44
2024/01/29 04:44:41;;;;;;;16.35;8.63;;;1.40;99.90;;;;;;5015219;28;20025;-44
2024/01/29 04:47:07;;;;;;;13.13;10.00;;;1.40;99.90;;;;;;5015235;28;20037;-45
2024/01/29 04:49:32;;;;;;;14.65;8.95;;;1.40;99.90;;;;;;5015244;28;20037;-43
2024/01/29 04:51:58;;;;;;;15.70;8.77;;;1.40;99.90;;;;;;5015171;28;20026;-43
2024/01/29 04:54:23;;;;;;;14.30;8.13;;;1.50;99.90;;;;;;5014937;28;20062;-46
2024/01/29 04:56:49;;;;;;;17.48;9.38;;;1.50;99.90;;;;;;5015047;28;20101;-47
2024/01/29 04:59:14;;;;;;;10.55;6.95;;;1.50;99.90;;;;;;5015138;28;20085;-43
2024/01/29 05:01:40;;;;;;;7.18;5.35;;;1.70;99.90;;;;;;5015006;28;20034;-43
2024/01/29 05:04:05;;;;;;;8.13;5.95;;;1.80;99.90;;;;;;5014392;28;20538;-43
2024/01/29 05:06:31;;;;;;;10.50;6.40;;;1.90;99.90;;;;;;5014927;28;20026;-45
2024/01/29 05:08:56;;;;;;;9.52;6.95;;;1.90;99.90;;;;;;5015043;28;20057;-42
2024/01/29 05:11:22;;;;;;;16.10;8.68;;;1.90;99.90;;;;;;5014673;28;20034;-44
2024/01/29 05:13:47;;;;;;;11.82;8.32;;;1.80;99.90;;;;;;5014479;28;20112;-41
2024/01/29 05:16:15;;;;;;;11.38;8.40;;;1.80;99.90;;;;;;5015009;28;20117;-41
2024/01/29 05:18:41;;;;;;;11.70;7.13;;;1.70;99.90;;;;;;5015231;28;20101;-42
2024/01/29 05:21:06;;;;;;;13.45;7.18;;;1.70;99.90;;;;;;5014763;28;20053;-43
2024/01/29 05:23:32;;;;;;;10.02;7.60;;;1.60;99.90;;;;;;5014748;28;20487;-45
2024/01/29 05:25:57;;;;;;;15.90;8.27;;;1.60;99.90;;;;;;5014445;28;20026;-45
2024/01/29 05:28:23;;;;;;;9.75;6.20;;;1.60;99.90;;;;;;5014316;28;20402;-45
2024/01/29 05:30:51;;;;;;;9.57;6.35;;;1.60;99.90;;;;;;5014337;28;20062;-41
2024/01/29 05:33:17;;;;;;;8.05;5.88;;;1.70;99.90;;;;;;5013916;28;20029;-47
2024/01/29 05:35:42;;;;;;;8.10;5.32;;;1.70;99.90;;;;;;5014208;28;20033;-44
2024/01/29 05:38:08;;;;;;;9.77;5.35;;;1.70;99.90;;;;;;5014214;28;20560;-45
2024/01/29 05:40:33;;;;;;;8.68;6.22;;;1.70;99.90;;;;;;5015410;28;20026;-46
2024/01/29 05:42:59;;;;;;;11.38;6.80;;;1.60;99.90;;;;;;5013933;28;20514;-47
2024/01/29 05:45:24;;;;;;;6.20;5.50;;;1.60;99.90;;;;;;5014051;28;20022;-46
2024/01/29 05:47:50;;;;;;;10.63;6.82;;;1.50;99.90;;;;;;5013177;28;20030;-43
2024/01/29 05:50:16;;;;;;;11.88;8.32;;;1.60;99.90;;;;;;5013991;28;20029;-42
2024/01/29 05:52:42;;;;;;;13.90;8.68;;;1.50;99.90;;;;;;5013587;28;20040;-42
2024/01/29 05:55:07;;;;;;;12.63;8.15;;;1.40;99.90;;;;;;5014021;28;20029;-44
2024/01/29 05:57:33;;;;;;;11.65;7.97;;;1.40;99.90;;;;;;5013753;28;20026;-46
2024/01/29 05:59:59;;;;;;;11.00;7.63;;;1.30;99.90;;;;;;5013861;28;20511;-43
2024/01/29 06:02:24;;;;;;;16.88;8.05;;;1.20;99.90;;;;;;5013307;28;20034;-43
2024/01/29 06:04:50;;;;;;;14.70;7.53;;;1.20;99.90;;;;;;5013597;28;20022;-42
2024/01/29 06:07:15;;;;;;;10.25;7.32;;;1.10;99.90;;;;;;5013668;28;20058;-46
2024/01/29 06:09:41;;;;;;;13.38;6.95;;;1.10;99.90;;;;;;5013791;28;20029;-39
2024/01/29 06:12:06;;;;;;;9.98;7.03;;;1.10;99.90;;;;;;5013393;28;20034;-39
2024/01/29 06:14:32;;;;;;;11.77;7.00;;;1.00;99.90;;;;;;5013388;28;20034;-43
2024/01/29 06:16:58;;;;;;;13.98;8.25;;;1.00;99.90;;;;;;5013397;28;20025;-44
2024/01/29 06:19:24;;;;;;;13.75;8.57;;;0.90;99.90;;;;;;5013535;28;20029;-42
2024/01/29 06:21:49;;;;;;;11.43;7.35;;;0.90;99.90;;;;;;5013418;28;20025;-42
2024/01/29 06:24:15;;;;;;;13.20;7.28;;;0.90;99.90;;;;;;5013597;28;20026;-42
2024/01/29 06:26:41;;;;;;;9.55;6.90;;;0.80;99.90;;;;;;5013788;28;20022;-44
2024/01/29 06:29:07;;;;;;;13.05;7.47;;;0.80;99.90;;;;;;5013576;28;20026;-42
2024/01/29 06:31:32;;;;;;;12.30;7.93;;;0.80;99.90;;;;;;5013172;28;20032;-42
2024/01/29 06:33:58;;;;;;;11.30;7.68;;;0.80;99.90;;;;;;5013197;28;20050;-44
2024/01/29 06:36:24;;;;;;;12.95;8.75;;;0.70;99.90;;;;;;5013078;28;20372;-42
2024/01/29 06:38:49;;;;;;;15.00;8.80;;;0.70;99.90;;;;;;5013228;28;20382;-41
2024/01/29 06:41:19;;;;;;;16.45;9.52;;;0.70;99.90;;;;;;5013131;28;20036;-46
2024/01/29 06:43:45;;;;;;;11.40;8.82;;;0.70;99.90;;;;;;5013614;23;20050;-50
2024/01/29 06:46:10;;;;;;;13.18;8.85;;;0.80;99.90;;;;;;4993595;28;20093;-48
2024/01/29 06:48:37;;;;;;;12.52;9.45;;;0.70;99.90;;;;;;4977205;28;20038;-49
2024/01/29 06:51:03;;;;;;;16.63;8.98;;;0.80;99.90;;;;;;4974662;28;20015;-49
2024/01/29 06:53:29;;;;;;;16.17;9.70;;;0.90;99.90;;;;;;4981493;28;20125;-49
2024/01/29 06:55:55;;;;;;;13.98;9.48;;;0.90;99.90;;;;;;4973722;28;20704;-49
2024/01/29 06:58:20;;;;;;;12.88;9.18;;;1.00;99.90;;;;;;4973761;28;20431;-52
2024/01/29 07:00:46;;;;;;;20.40;9.90;;;0.90;99.90;;;;;;4973963;28;20023;-48
2024/01/29 07:03:12;;;;;;;15.52;9.52;;;1.00;99.90;;;;;;4973369;28;20039;-51
2024/01/29 07:05:38;;;;;;;19.10;11.38;;;1.00;99.90;;;;;;4973931;28;20543;-52
2024/01/29 07:08:04;;;;;;;20.52;11.30;;;1.10;99.90;;;;;;4972739;28;20112;-50
2024/01/29 07:10:30;;;;;;;14.20;9.40;;;1.10;99.90;;;;;;4973820;28;20019;-50
2024/01/29 07:12:55;;;;;;;9.88;7.57;;;1.20;99.90;;;;;;4973219;28;20624;-50
2024/01/29 07:15:21;;;;;;;13.00;7.80;;;1.20;99.90;;;;;;4973823;28;20522;-48
2024/01/29 07:17:47;;;;;;;11.15;7.47;;;1.20;99.90;;;;;;4973868;28;20030;-48
2024/01/29 07:20:12;;;;;;;13.00;8.48;;;1.20;99.90;;;;;;4972354;28;20026;-50
2024/01/29 07:22:38;;;;;;;11.85;7.38;;;1.40;99.90;;;;;;4973098;28;20163;-51
2024/01/29 07:25:08;;;;;;;13.05;8.60;;;1.50;99.90;;;;;;4974309;28;20116;-48
2024/01/29 07:27:33;;;;;;;15.23;8.50;;;1.50;99.90;;;;;;4956230;28;20027;-46
2024/01/29 07:29:59;;;;;;;14.15;8.50;;;1.30;99.90;;;;;;4973157;28;20034;-47
2024/01/29 07:32:31;;;;;;;18.42;10.23;;;1.20;99.90;;;;;;4972984;28;20073;-52
2024/01/29 07:35:00;;;;;;;14.23;9.30;;;1.10;99.90;;;;;;4973258;28;20026;-52
2024/01/29 07:37:27;;;;;;;16.40;9.25;;;0.90;99.90;;;;;;4973192;28;20080;-49
2024/01/29 07:39:53;;;;;;;18.17;9.60;;;0.90;99.90;;;;;;4973233;28;20038;-51
2024/01/29 07:42:19;;;;;;;15.32;9.73;;;0.90;99.90;;;;;;4972726;28;20383;-47
2024/01/29 07:44:44;;;;;;;13.43;8.13;;;0.90;99.90;;;;;;4973264;28;20033;-48
2024/01/29 07:47:10;;;;;;;12.70;8.15;;;0.90;99.90;;;;;;4977126;28;20153;-49
2024/01/29 07:49:36;;;;;;;15.50;7.90;;;0.80;99.90;;;;;;4973038;28;20018;-51
2024/01/29 07:52:01;;;;;;;16.45;8.32;;;0.80;99.90;;;;;;4973132;28;20029;-53
2024/01/29 07:54:27;;;;;;;20.35;8.70;;;0.70;99.90;;;;;;4973009;28;20038;-51
2024/01/29 07:56:53;;;;;;;22.23;10.45;;;0.70;99.90;;;;;;4982058;28;20031;-52
2024/01/29 07:59:18;;;;;;;15.85;8.82;;;0.60;99.90;;;;;;4972821;28;20082;-48
2024/01/29 08:01:44;;;;;;;19.80;7.82;;;0.60;99.90;;;;;;4975868;28;20030;-49
2024/01/29 08:04:11;;;;;;;14.13;8.43;;;0.70;99.90;;;;;;4971135;28;20117;-48
2024/01/29 08:06:36;;;;;;;19.25;8.77;;;0.70;99.90;;;;;;4972543;28;20077;-50
2024/01/29 08:09:04;;;;;;;24.75;8.95;;;0.70;99.90;;;;;;4972637;28;20023;-52
2024/01/29 08:11:30;;;;;;;23.70;8.30;;;0.80;99.90;;;;;;4968628;28;20023;-51
2024/01/29 08:13:56;;;;;;;20.48;7.88;;;0.80;99.90;;;;;;4972127;28;20119;-48
2024/01/29 08:16:21;;;;;;;19.77;9.32;;;0.80;99.90;;;;;;4972704;28;20023;-47
2024/01/29 08:18:47;;;;;;;17.95;9.55;;;0.90;99.90;;;;;;4983062;28;20037;-47
2024/01/29 08:21:12;;;;;;;18.83;9.55;;;1.10;99.90;;;;;;4992470;28;20527;-49
2024/01/29 08:23:38;;;;;;;26.08;9.57;;;1.20;99.90;;;;;;4991607;28;20027;-51
2024/01/29 08:26:04;;;;;;;20.05;9.95;;;1.30;99.90;;;;;;4992279;28;20399;-47
2024/01/29 08:28:29;;;;;;;16.20;9.25;;;1.30;99.90;;;;;;4974439;28;20038;-52
2024/01/29 08:30:58;;;;;;;35.15;8.68;;;1.40;99.90;;;;;;4982376;28;20027;-50
2024/01/29 08:33:28;;;;;;;18.60;9.30;;;1.50;99.90;;;;;;4972079;28;20030;-50
2024/01/29 08:35:54;;;;;;;15.98;9.25;;;1.60;99.90;;;;;;4972008;28;20034;-50
2024/01/29 08:38:19;;;;;;;24.67;10.07;;;1.70;99.90;;;;;;4972490;28;20041;-51
2024/01/29 08:40:45;;;;;;;16.52;10.32;;;1.90;99.90;;;;;;4972226;28;20046;-53
2024/01/29 08:43:10;;;;;;;15.60;9.18;;;2.00;99.90;;;;;;4972762;28;20030;-49
2024/01/29 08:45:36;;;;;;;25.05;8.15;;;2.00;99.90;;;;;;4981936;28;20069;-47
2024/01/29 08:48:03;;;;;;;20.20;10.02;;;2.40;99.90;;;;;;4984165;28;20502;-52
2024/01/29 08:50:30;;;;;;;15.23;8.73;;;2.50;99.90;;;;;;4991762;28;20023;-48
2024/01/29 08:52:55;;;;;;;17.23;8.27;;;2.70;99.90;;;;;;4991404;28;20081;-52
2024/01/29 08:55:22;;;;;;;33.60;9.77;;;2.90;99.90;;;;;;4991797;28;20054;-49
2024/01/29 08:57:47;;;;;;;19.77;11.18;;;2.90;99.90;;;;;;4991680;28;20510;-51
2024/01/29 09:00:14;;;;;;;19.30;10.43;;;2.90;99.90;;;;;;4991766;28;20034;-49
2024/01/29 09:02:41;;;;;;;22.10;12.48;;;3.20;99.90;;;;;;4991375;28;20018;-47
2024/01/29 09:05:07;;;;;;;22.35;10.90;;;3.30;99.90;;;;;;4991835;28;20077;-53
2024/01/29 09:07:33;;;;;;;22.75;11.20;;;3.40;99.90;;;;;;4992204;28;20022;-46
2024/01/29 09:09:58;;;;;;;22.42;12.85;;;3.50;99.90;;;;;;4991603;28;20033;-49
2024/01/29 09:12:24;;;;;;;25.48;13.50;;;3.70;99.90;;;;;;4991350;28;20066;-48
2024/01/29 09:14:49;;;;;;;19.20;12.52;;;3.90;99.90;;;;;;4991472;28;20105;-45
2024/01/29 09:17:15;;;;;;;21.90;11.93;;;4.50;99.90;;;;;;4991391;28;20117;-47
2024/01/29 09:19:40;;;;;;;23.70;11.80;;;5.40;99.90;;;;;;4981926;28;20023;-46
2024/01/29 09:22:06;;;;;;;26.65;12.00;;;6.20;99.90;;;;;;4989545;28;20072;-57
2024/01/29 09:24:31;;;;;;;19.27;11.80;;;7.20;99.90;;;;;;4982128;28;20026;-47
2024/01/29 09:26:57;;;;;;;19.17;12.05;;;8.00;99.90;;;;;;4995022;28;20031;-51
2024/01/29 09:29:24;;;;;;;16.20;11.50;;;9.30;99.90;;;;;;4993116;28;20105;-46
2024/01/29 09:31:50;;;;;;;15.82;10.48;;;9.30;99.90;;;;;;4994926;28;20039;-46
2024/01/29 09:34:16;;;;;;;20.27;11.57;;;;;;;;;;4992997;28;20030;-46
2024/01/29 09:36:41;;;;;;;17.55;12.15;;;10.50;99.90;;;;;;4984042;28;20031;-48
2024/01/29 09:39:07;;;;;;;18.73;12.48;;;11.00;99.90;;;;;;4980237;28;20365;-46
2024/01/29 09:41:34;;;;;;;20.33;12.32;;;11.10;99.90;;;;;;4977715;28;20526;-45
2024/01/29 09:44:02;;;;;;;16.63;11.65;;;;;;;;;;4983393;28;20192;-50
2024/01/29 09:46:28;;;;;;;16.50;12.02;;;11.20;99.90;;;;;;4974519;28;20492;-49
2024/01/29 09:48:55;;;;;;;16.70;11.43;;;10.80;99.90;;;;;;4972161;28;20034;-49
2024/01/29 09:51:22;;;;;;;19.13;11.60;;;11.40;99.90;;;;;;4988800;28;20101;-47
2024/01/29 09:53:50;;;;;;;18.60;11.25;;;11.90;99.90;;;;;;4974977;28;20034;-50
2024/01/29 09:56:15;;;;;;;18.65;10.43;;;12.10;99.40;;;;;;4974494;28;20623;-50
2024/01/29 09:58:41;;;;;;;17.33;11.48;;;12.40;99.90;;;;;;4986421;28;20062;-46
2024/01/29 10:01:10;;;;;;;21.02;11.20;;;12.50;99.90;;;;;;4993391;28;20034;-46
2024/01/29 10:03:38;;;;;;;13.90;10.65;;;12.40;98.90;;;;;;4975684;28;20027;-48
2024/01/29 10:06:04;;;;;;;21.45;11.10;;;12.20;99.90;;;;;;4974443;28;20067;-48
2024/01/29 10:08:30;;;;;;;15.43;10.15;;;12.20;99.00;;;;;;4991129;28;20050;-51
2024/01/29 10:10:55;;;;;;;14.93;10.73;;;11.20;99.90;;;;;;4984411;28;20460;-49
2024/01/29 10:13:21;;;;;;;13.38;10.75;;;12.80;98.20;;;;;;4982507;28;20062;-45
2024/01/29 10:15:47;;;;;;;16.02;11.13;;;12.80;99.90;;;;;;4989835;28;20030;-51
2024/01/29 10:18:15;;;;;;;13.10;10.20;;;13.20;98.10;;;;;;4991684;28;20019;-51
2024/01/29 10:20:41;;;;;;;12.63;10.15;;;13.40;97.10;;;;;;4974668;28;20025;-44
2024/01/29 10:23:06;;;;;;;15.43;12.60;;;13.60;96.90;;;;;;4974302;28;20496;-46
2024/01/29 10:25:34;;;;;;;14.55;11.57;;;13.40;97.40;;;;;;4974368;28;20034;-47
2024/01/29 10:28:08;;;;;;;15.73;11.98;;;13.60;97.00;;;;;;4974499;28;20033;-51
2024/01/29 10:30:34;;;;;;;21.85;11.18;;;13.20;97.20;;;;;;4978383;28;20033;-50
2024/01/29 10:32:59;;;;;;;14.52;10.85;;;13.10;97.30;;;;;;4992932;28;20038;-51
2024/01/29 10:35:25;;;;;;;15.20;10.98;;;12.70;98.00;;;;;;4993736;28;20399;-48
2024/01/29 10:37:51;;;;;;;12.38;9.80;;;12.50;98.80;;;;;;4993648;28;20019;-45
2024/01/29 10:40:21;;;;;;;13.98;10.43;;;12.70;98.70;;;;;;4993597;28;20022;-50
2024/01/29 10:42:51;;;;;;;13.40;9.60;;;12.70;98.40;;;;;;4993099;28;20403;-51
2024/01/29 10:45:19;;;;;;;16.52;11.32;;;13.00;98.00;;;;;;4993379;28;20395;-47
2024/01/29 10:47:52;;;;;;;15.40;12.10;;;13.10;97.80;;;;;;4993494;28;20022;-49
2024/01/29 10:50:19;;;;;;;21.33;12.20;;;12.60;97.70;;;;;;4989983;28;20030;-52
2024/01/29 10:52:47;;;;;;;12.95;11.15;;;11.80;99.00;;;;;;4973859;28;20023;-50
2024/01/29 10:55:16;;;;;;;20.67;12.43;;;11.20;99.90;;;;;;4975028;28;20113;-52
2024/01/29 10:57:46;;;;;;;16.67;11.65;;;10.60;99.90;;;;;;4993380;28;20102;-49
2024/01/29 11:00:14;;;;;;;83.93;53.47;;;10.20;99.90;;;;;;4993231;28;20025;-51
2024/01/29 11:02:40;;;;;;;65.95;39.65;;;9.90;99.90;;;;;;4992972;28;20049;-47
2024/01/29 11:05:08;;;;;;;23.13;15.15;;;9.70;99.90;;;;;;4993171;28;20066;-51
2024/01/29 11:07:35;;;;;;;18.75;12.80;;;9.70;99.90;;;;;;4991919;28;20470;-52
2024/01/29 11:10:16;;;;;;;19.08;12.88;;;9.60;99.90;;;;;;4993184;28;20018;-50
2024/01/29 11:12:43;;;;;;;21.95;12.80;;;9.70;99.90;;;;;;4992216;28;20027;-45
2024/01/29 11:15:10;;;;;;;19.27;12.75;;;9.50;99.90;;;;;;4976939;28;20157;-47
2024/01/29 11:17:35;;;;;;;16.42;12.85;;;9.50;99.90;;;;;;4972415;28;20034;-49
2024/01/29 11:20:04;;;;;;;18.02;12.57;;;9.20;99.90;;;;;;4953606;28;20484;-53
2024/01/29 11:22:40;;;;;;;18.27;12.88;;;9.00;99.90;;;;;;4970822;28;20027;-51
2024/01/29 11:25:16;;;;;;;15.02;11.98;;;8.70;99.90;;;;;;4970832;28;20027;-48
2024/01/29 11:27:43;;;;;;;15.77;12.35;;;8.70;99.90;;;;;;4955130;28;20150;-47
2024/01/29 11:30:19;;;;;;;20.58;12.70;;;8.80;99.90;;;;;;4973501;28;20033;-49
2024/01/29 11:32:49;;;;;;;21.00;12.43;;;8.90;99.90;;;;;;4972917;28;20026;-48
2024/01/29 11:35:23;;;;;;;17.58;12.07;;;8.70;99.90;;;;;;4977705;28;20021;-45
2024/01/29 11:37:50;;;;;;;16.60;12.57;;;8.50;99.90;;;;;;4978333;28;20085;-47
2024/01/29 11:40:59;;;;;;;15.65;12.32;;;8.50;99.90;;;;;;4972970;28;20018;-53
2024/01/29 11:43:25;;;;;;;16.77;13.00;;;8.50;99.90;;;;;;4919995;29;20062;-48
2024/01/29 11:45:54;;;;;;;14.57;11.95;;;8.50;99.90;;;;;;4931486;29;20505;-48
2024/01/29 11:48:21;;;;;;;20.42;12.35;;;8.60;99.90;;;;;;4944638;28;20070;-49
2024/01/29 11:50:49;;;;;;;22.88;11.98;;;8.50;99.90;;;;;;4975452;28;20029;-46
2024/01/29 11:53:19;;;;;;;15.85;11.40;;;8.40;99.90;;;;;;4984189;28;20411;-47
2024/01/29 11:55:47;;;;;;;15.25;11.95;;;8.30;99.90;;;;;;4973099;28;20031;-48
2024/01/29 11:58:20;;;;;;;16.52;12.48;;;8.30;99.90;;;;;;4981490;28;20033;-48
2024/01/29 12:00:47;;;;;;;16.48;12.70;;;8.20;99.90;;;;;;4992433;28;20044;-47
2024/01/29 12:03:15;;;;;;;18.33;12.27;;;8.20;99.90;;;;;;4976763;28;20113;-52
2024/01/29 12:05:40;;;;;;;17.60;11.73;;;8.10;99.90;;;;;;4971187;28;20081;-48
2024/01/29 12:08:16;;;;;;;20.40;12.63;;;8.20;99.90;;;;;;4972799;28;20031;-49
2024/01/29 12:10:45;;;;;;;18.80;13.18;;;8.10;99.90;;;;;;4974044;28;20034;-52
2024/01/29 12:13:18;;;;;;;19.08;12.63;;;8.10;99.90;;;;;;4973046;28;20030;-51
2024/01/29 12:15:45;;;;;;;17.75;13.35;;;8.10;99.90;;;;;;4992598;28;20101;-51
2024/01/29 12:18:19;;;;;;;17.00;12.48;;;8.10;99.90;;;;;;4990142;28;20038;-51
2024/01/29 12:20:47;;;;;;;18.70;13.38;;;8.10;99.90;;;;;;4983228;28;20073;-45
2024/01/29 12:23:13;;;;;;;17.88;12.20;;;8.10;99.90;;;;;;4972355;28;20031;-47
2024/01/29 12:25:39;;;;;;;19.25;12.88;;;8.20;99.90;;;;;;4972552;28;20096;-48
2024/01/29 12:28:09;;;;;;;16.98;11.90;;;8.10;99.90;;;;;;4973125;28;20035;-47
2024/01/29 12:30:35;;;;;;;17.23;11.98;;;8.20;99.90;;;;;;4980828;28;20407;-48
2024/01/29 12:33:00;;;;;;;16.20;12.85;;;8.20;99.90;;;;;;4991493;28;20030;-46
2024/01/29 12:35:28;;;;;;;19.52;12.40;;;8.30;99.90;;;;;;4991745;28;20034;-49